Time;durP1;ratioP1;P1;durP2;ratioP2;P2;SDS_P1;SDS_P2;PMS_P1;PMS_P2;Temp;Humidity;BMP_temperature;BMP_pressure;BME280_temperature;BME280_humidity;BME280_pressure;Samples;Min_cycle;Max_cycle;Signal;HPM_P1;HPM_P2
2021/12/07 00:00:52;;;;;;;1.83;1.42;;;21.50;36.50;;;;;;4981462;28;20481;-64
2021/12/07 00:03:19;;;;;;;1.50;1.20;;;21.40;36.40;;;;;;4980202;28;21380;-65
2021/12/07 00:05:45;;;;;;;1.42;1.20;;;21.40;36.40;;;;;;4976136;28;20429;-64
2021/12/07 00:08:10;;;;;;;1.80;1.30;;;21.40;36.40;;;;;;4975502;28;20520;-64
2021/12/07 00:10:38;;;;;;;1.80;1.20;;;21.40;36.30;;;;;;4979533;28;20884;-64
2021/12/07 00:13:04;;;;;;;2.05;1.25;;;21.40;36.30;;;;;;4979704;28;20977;-64
2021/12/07 00:15:30;;;;;;;1.60;1.20;;;21.40;36.30;;;;;;4978471;28;20395;-65
2021/12/07 00:17:57;;;;;;;1.80;1.20;;;21.40;36.20;;;;;;4972907;28;20428;-65
2021/12/07 00:20:24;;;;;;;1.90;1.20;;;21.40;36.10;;;;;;4966585;28;20901;-65
2021/12/07 00:22:53;;;;;;;1.80;1.20;;;21.40;36.00;;;;;;4966090;28;20962;-64
2021/12/07 00:25:19;;;;;;;2.50;1.10;;;21.30;36.00;;;;;;4971873;28;20407;-66
2021/12/07 00:27:47;;;;;;;1.27;1.10;;;21.40;35.90;;;;;;4983309;28;20487;-65
2021/12/07 00:30:14;;;;;;;1.70;1.20;;;21.30;35.80;;;;;;4982701;28;20401;-65
2021/12/07 00:32:46;;;;;;;1.60;1.20;;;21.30;35.90;;;;;;4979636;28;20396;-64
2021/12/07 00:35:45;;;;;;;1.35;1.00;;;21.30;35.80;;;;;;4975609;28;20389;-66
2021/12/07 00:38:13;;;;;;;1.30;1.10;;;21.30;35.80;;;;;;4964548;28;20420;-65
2021/12/07 00:40:41;;;;;;;1.50;1.10;;;21.30;35.80;;;;;;4968278;28;20404;-64
2021/12/07 00:43:06;;;;;;;1.35;1.10;;;21.30;35.80;;;;;;4967538;28;20408;-65
2021/12/07 00:45:34;;;;;;;2.20;1.10;;;21.30;35.70;;;;;;4968849;28;20399;-66
2021/12/07 00:48:03;;;;;;;1.25;0.93;;;21.30;35.70;;;;;;4969893;28;20391;-65
2021/12/07 00:50:34;;;;;;;1.30;1.00;;;21.30;35.60;;;;;;4970844;28;20800;-64
2021/12/07 00:53:02;;;;;;;1.65;1.20;;;21.30;35.50;;;;;;4964309;28;20401;-65
2021/12/07 00:55:31;;;;;;;1.50;1.10;;;21.30;35.50;;;;;;4968343;28;20400;-64
2021/12/07 00:57:58;;;;;;;1.40;0.98;;;21.30;35.40;;;;;;4964938;28;20428;-66
2021/12/07 01:00:26;;;;;;;1.77;1.15;;;21.30;35.40;;;;;;4965758;28;20400;-65
2021/12/07 01:02:57;;;;;;;1.45;1.13;;;21.20;35.40;;;;;;4971797;28;20398;-64
2021/12/07 01:05:28;;;;;;;1.30;1.00;;;21.20;35.40;;;;;;4968388;28;20451;-66
2021/12/07 01:26:47;;;;;;;1.35;0.90;;;21.20;34.90;;;;;;4965039;28;20873;-65
2021/12/07 01:29:15;;;;;;;1.30;1.00;;;21.20;34.80;;;;;;4965520;28;20416;-64
2021/12/07 01:31:53;;;;;;;1.55;1.10;;;21.20;34.90;;;;;;4970993;28;20424;-64
2021/12/07 01:44:50;;;;;;;1.60;1.25;;;21.20;34.70;;;;;;4973226;28;20793;-64
2021/12/07 01:47:30;;;;;;;1.52;1.00;;;21.20;34.60;;;;;;4966367;28;20414;-64
2021/12/07 01:52:44;;;;;;;1.63;1.08;;;21.20;34.60;;;;;;4965299;28;20779;-65
2021/12/07 02:00:44;;;;;;;1.40;1.05;;;21.10;34.50;;;;;;4943074;28;21574;-66
2021/12/07 02:03:10;;;;;;;1.10;0.90;;;21.10;34.30;;;;;;4966576;28;20484;-64
2021/12/07 02:05:36;;;;;;;1.30;1.00;;;21.10;34.50;;;;;;4972752;28;20411;-65
2021/12/07 02:08:02;;;;;;;1.30;1.00;;;21.10;34.40;;;;;;4966428;28;20397;-65
2021/12/07 02:10:30;;;;;;;1.45;1.00;;;21.10;34.50;;;;;;4964667;28;21164;-65
2021/12/07 02:13:03;;;;;;;1.73;0.90;;;21.10;34.40;;;;;;4965976;28;20750;-65
2021/12/07 02:15:29;;;;;;;1.35;1.00;;;21.10;34.30;;;;;;4967698;28;20408;-64
2021/12/07 02:17:55;;;;;;;1.08;0.80;;;21.10;34.30;;;;;;4966260;28;20488;-64
2021/12/07 02:20:24;;;;;;;1.30;0.90;;;21.10;34.20;;;;;;4980453;28;20412;-64
2021/12/07 02:22:51;;;;;;;1.20;0.88;;;21.00;34.20;;;;;;4970907;28;20447;-64
2021/12/07 02:25:18;;;;;;;1.10;0.90;;;21.10;34.10;;;;;;4963494;28;20487;-65
2021/12/07 02:27:46;;;;;;;1.55;0.90;;;21.00;34.00;;;;;;4966392;28;20771;-64
2021/12/07 02:30:15;;;;;;;1.00;0.73;;;21.10;34.10;;;;;;4965322;28;20407;-65
2021/12/07 02:32:41;;;;;;;1.13;0.70;;;21.10;34.10;;;;;;4971105;28;20433;-64
2021/12/07 02:35:10;;;;;;;1.10;0.82;;;21.10;34.80;;;;;;4965256;28;20444;-64
2021/12/07 02:37:35;;;;;;;0.90;0.70;;;21.10;34.10;;;;;;4964613;28;20424;-66
2021/12/07 02:40:04;;;;;;;1.40;0.80;;;21.10;34.20;;;;;;4968950;28;20431;-65
2021/12/07 02:42:29;;;;;;;1.40;0.93;;;21.00;34.10;;;;;;4971055;28;20437;-65
2021/12/07 02:44:55;;;;;;;1.30;0.80;;;21.00;34.10;;;;;;4966896;28;20925;-66
2021/12/07 02:47:21;;;;;;;1.40;0.90;;;21.10;34.20;;;;;;4970287;28;20392;-64
2021/12/07 02:49:47;;;;;;;1.58;1.20;;;21.00;33.80;;;;;;4969120;28;20400;-64
2021/12/07 02:52:14;;;;;;;1.33;0.90;;;21.00;33.70;;;;;;4964614;28;20396;-65
2021/12/07 02:54:44;;;;;;;1.50;0.90;;;21.00;33.80;;;;;;4976919;28;21044;-64
2021/12/07 02:57:15;;;;;;;1.20;0.80;;;21.00;34.20;;;;;;4970601;28;20906;-65
2021/12/07 02:59:50;;;;;;;1.30;0.90;;;21.00;34.20;;;;;;4969835;28;21243;-64
2021/12/07 03:02:17;;;;;;;1.30;0.90;;;21.00;34.20;;;;;;4971639;28;20450;-64
2021/12/07 03:04:58;;;;;;;1.40;0.90;;;21.00;33.60;;;;;;4968336;28;20396;-65
2021/12/07 03:07:45;;;;;;;1.20;0.80;;;21.00;33.50;;;;;;4966166;28;20400;-64
2021/12/07 03:26:20;;;;;;;1.40;0.95;;;20.90;34.90;;;;;;4966851;28;20435;-65
2021/12/07 03:28:49;;;;;;;1.13;0.73;;;20.90;33.90;;;;;;4973541;28;20407;-65
2021/12/07 03:31:16;;;;;;;1.10;0.60;;;20.90;33.10;;;;;;4972611;28;20408;-64
2021/12/07 03:33:41;;;;;;;1.42;0.80;;;20.90;33.20;;;;;;4968767;28;20440;-65
2021/12/07 03:36:09;;;;;;;1.23;0.70;;;20.90;34.10;;;;;;4978460;28;20399;-65
2021/12/07 03:38:35;;;;;;;1.02;0.60;;;20.90;33.20;;;;;;4966988;28;20486;-66
2021/12/07 03:41:00;;;;;;;1.08;0.70;;;20.90;33.60;;;;;;4974692;28;20500;-64
2021/12/07 03:43:26;;;;;;;1.40;0.90;;;20.90;33.50;;;;;;4982509;28;20485;-64
2021/12/07 03:45:52;;;;;;;1.00;0.70;;;20.90;33.40;;;;;;4971724;28;20806;-64
2021/12/07 03:48:18;;;;;;;1.20;0.80;;;20.90;33.40;;;;;;4970177;28;20406;-64
2021/12/07 03:50:44;;;;;;;0.93;0.65;;;20.90;33.30;;;;;;4971300;28;20400;-64
2021/12/07 03:53:11;;;;;;;0.90;0.65;;;20.90;33.40;;;;;;4965689;28;20415;-64
2021/12/07 03:55:37;;;;;;;0.82;0.63;;;20.90;33.20;;;;;;4980273;28;20422;-64
2021/12/07 03:58:03;;;;;;;1.40;0.70;;;20.90;33.00;;;;;;4970882;28;20424;-64
2021/12/07 04:00:33;;;;;;;1.40;0.80;;;20.90;32.90;;;;;;4966271;28;21397;-66
2021/12/07 04:03:02;;;;;;;1.00;0.80;;;20.80;33.50;;;;;;4969606;28;20759;-64
2021/12/07 04:05:28;;;;;;;1.27;0.60;;;20.80;33.00;;;;;;4971312;28;20392;-63
2021/12/07 04:07:54;;;;;;;0.90;0.60;;;20.80;32.70;;;;;;4970346;28;20454;-64
2021/12/07 04:10:22;;;;;;;1.00;0.70;;;20.80;32.80;;;;;;4965847;28;20927;-64
2021/12/07 04:12:48;;;;;;;1.30;0.70;;;20.80;32.80;;;;;;4964514;28;20414;-64
2021/12/07 04:15:16;;;;;;;0.90;0.70;;;20.80;32.80;;;;;;4969044;28;20794;-66
2021/12/07 04:17:42;;;;;;;0.95;0.70;;;20.80;32.90;;;;;;4964562;28;20520;-66
2021/12/07 04:20:10;;;;;;;1.00;0.60;;;20.80;32.60;;;;;;4972389;28;20414;-64
2021/12/07 04:22:36;;;;;;;0.90;0.50;;;20.80;32.90;;;;;;4970534;28;20958;-65
2021/12/07 04:25:09;;;;;;;1.25;0.60;;;20.80;32.50;;;;;;4968582;28;20424;-70
2021/12/07 04:27:38;;;;;;;1.20;0.65;;;20.80;33.00;;;;;;4973685;28;20421;-66
2021/12/07 04:30:07;;;;;;;0.90;0.52;;;20.80;33.90;;;;;;4976025;28;20384;-64
2021/12/07 04:32:32;;;;;;;0.90;0.60;;;20.80;34.60;;;;;;4968694;28;20443;-64
2021/12/07 04:34:58;;;;;;;1.47;0.70;;;20.80;34.00;;;;;;4967367;28;20398;-64
2021/12/07 04:37:24;;;;;;;0.90;0.57;;;20.80;33.60;;;;;;4974467;28;20433;-64
2021/12/07 04:39:49;;;;;;;0.70;0.50;;;20.80;33.20;;;;;;4968065;28;20395;-64
2021/12/07 04:42:15;;;;;;;1.00;0.60;;;20.80;33.60;;;;;;4965307;28;20392;-65
2021/12/07 04:44:49;;;;;;;2.65;0.65;;;20.80;32.80;;;;;;4969286;28;20453;-63
2021/12/07 04:47:23;;;;;;;1.58;0.60;;;20.80;33.70;;;;;;4965204;28;20422;-65
2021/12/07 04:57:47;;;;;;;4.07;1.10;;;21.10;35.20;;;;;;4964639;28;20422;-64
2021/12/07 05:00:26;;;;;;;2.75;0.77;;;21.10;35.50;;;;;;4969699;28;20427;-65
2021/12/07 05:02:57;;;;;;;2.40;1.00;;;21.10;36.00;;;;;;4964850;28;20831;-64
2021/12/07 05:05:27;;;;;;;4.03;0.90;;;21.10;35.80;;;;;;4963548;28;20401;-64
2021/12/07 05:07:55;;;;;;;2.47;0.80;;;21.10;35.90;;;;;;4964856;28;20427;-65
2021/12/07 05:10:32;;;;;;;1.85;0.95;;;21.10;36.30;;;;;;4964851;28;20391;-65
2021/12/07 05:13:23;;;;;;;2.40;0.88;;;21.10;36.30;;;;;;4968125;28;20400;-64
2021/12/07 05:24:07;;;;;;;2.13;0.75;;;21.20;35.70;;;;;;4967713;28;20436;-65
2021/12/07 05:39:51;;;;;;;2.92;0.70;;;21.40;37.00;;;;;;4974756;28;20450;-64
2021/12/07 05:42:17;;;;;;;9.87;0.80;;;21.40;36.40;;;;;;4971570;28;21034;-66
2021/12/07 05:44:42;;;;;;;2.90;0.80;;;21.40;36.90;;;;;;4970454;28;20404;-64
2021/12/07 05:47:09;;;;;;;2.50;0.70;;;21.40;37.00;;;;;;4968887;28;20509;-66
2021/12/07 05:49:35;;;;;;;4.07;0.90;;;21.40;37.20;;;;;;4971490;28;20406;-64
2021/12/07 05:52:01;;;;;;;3.67;0.87;;;21.40;37.20;;;;;;4967241;28;20401;-64
2021/12/07 05:54:26;;;;;;;4.07;1.17;;;21.50;37.10;;;;;;4970102;28;20515;-66
2021/12/07 05:56:52;;;;;;;3.88;1.00;;;21.50;37.40;;;;;;4974050;28;20758;-67
2021/12/07 05:59:18;;;;;;;3.07;1.30;;;21.50;37.80;;;;;;4971875;28;21061;-65
2021/12/07 06:01:44;;;;;;;2.90;0.90;;;21.50;38.20;;;;;;4966532;28;20509;-66
2021/12/07 06:04:10;;;;;;;4.47;1.70;;;21.60;37.10;;;;;;4968388;28;20400;-65
2021/12/07 06:06:35;;;;;;;5.23;1.37;;;21.60;38.20;;;;;;4963950;28;20507;-66
2021/12/07 06:09:03;;;;;;;4.85;1.27;;;21.60;39.20;;;;;;4971183;28;20397;-71
2021/12/07 06:11:29;;;;;;;4.47;1.30;;;21.60;38.50;;;;;;4965815;28;20398;-68
2021/12/07 06:13:54;;;;;;;4.55;1.02;;;21.60;38.30;;;;;;4964405;28;20394;-65
2021/12/07 06:16:20;;;;;;;4.85;1.30;;;21.60;38.80;;;;;;4965344;28;20442;-65
2021/12/07 06:18:46;;;;;;;3.47;1.10;;;21.70;38.80;;;;;;4966340;28;20853;-65
2021/12/07 06:21:13;;;;;;;4.18;1.05;;;21.70;38.10;;;;;;4964706;28;20408;-66
2021/12/07 06:23:40;;;;;;;5.20;1.30;;;21.60;38.50;;;;;;4965767;28;20404;-65
2021/12/07 06:26:06;;;;;;;3.65;1.00;;;21.50;38.10;;;;;;4962154;28;20477;-65
2021/12/07 06:28:32;;;;;;;4.25;1.10;;;21.50;37.80;;;;;;4966441;28;20404;-65
2021/12/07 06:30:58;;;;;;;5.55;0.95;;;21.50;38.40;;;;;;4969239;28;20404;-65
2021/12/07 06:33:25;;;;;;;6.07;0.95;;;21.50;38.20;;;;;;4964005;28;21482;-64
2021/12/07 06:35:57;;;;;;;5.80;1.00;;;21.50;38.00;;;;;;4968382;28;20762;-65
2021/12/07 06:38:24;;;;;;;6.22;0.90;;;21.50;37.80;;;;;;4970495;28;20427;-64
2021/12/07 06:40:50;;;;;;;5.00;0.80;;;21.50;38.00;;;;;;4971696;28;20506;-64
2021/12/07 06:43:16;;;;;;;5.90;1.00;;;21.50;37.60;;;;;;4964368;28;20411;-71
2021/12/07 06:45:42;;;;;;;2.00;0.70;;;21.50;37.50;;;;;;4968812;28;20400;-64
2021/12/07 06:48:07;;;;;;;3.50;0.80;;;21.50;37.40;;;;;;4966139;28;20471;-65
2021/12/07 06:50:34;;;;;;;5.40;0.90;;;21.50;37.40;;;;;;4968966;28;20542;-64
2021/12/07 06:53:00;;;;;;;6.10;0.90;;;21.50;37.10;;;;;;4963662;28;20404;-65
2021/12/07 06:55:26;;;;;;;3.65;0.80;;;21.50;37.00;;;;;;4968529;28;20388;-65
2021/12/07 06:57:52;;;;;;;2.43;0.93;;;21.50;37.00;;;;;;4971590;28;20432;-66
2021/12/07 07:00:18;;;;;;;2.75;0.65;;;21.50;36.60;;;;;;4962085;28;20416;-66
2021/12/07 07:02:44;;;;;;;3.60;0.90;;;21.50;37.20;;;;;;4969065;28;20402;-66
2021/12/07 07:05:11;;;;;;;1.75;0.73;;;21.50;36.40;;;;;;4966147;28;20421;-66
2021/12/07 07:07:38;;;;;;;4.60;0.80;;;21.50;37.40;;;;;;4975332;28;20398;-66
2021/12/07 07:10:05;;;;;;;6.25;0.90;;;21.50;37.30;;;;;;4968216;28;20474;-66
2021/12/07 07:12:31;;;;;;;2.72;0.80;;;21.50;37.40;;;;;;4968413;28;20396;-67
2021/12/07 07:14:57;;;;;;;2.65;0.70;;;21.50;37.50;;;;;;4974934;28;20411;-68
2021/12/07 07:17:22;;;;;;;3.97;0.70;;;21.40;37.10;;;;;;4962325;28;20894;-66
2021/12/07 07:19:48;;;;;;;2.58;0.73;;;21.40;37.00;;;;;;4966918;28;20451;-66
2021/12/07 07:22:14;;;;;;;3.08;0.80;;;21.40;36.90;;;;;;4964532;28;20408;-66
2021/12/07 07:24:42;;;;;;;2.30;0.80;;;21.40;36.70;;;;;;4969388;28;20396;-66
2021/12/07 07:27:09;;;;;;;2.05;0.70;;;21.30;36.50;;;;;;4976628;28;20398;-67
2021/12/07 07:29:34;;;;;;;2.22;0.60;;;21.40;36.50;;;;;;4972898;28;20968;-66
2021/12/07 07:32:01;;;;;;;1.33;0.60;;;21.40;36.40;;;;;;4965147;28;20479;-66
2021/12/07 07:34:26;;;;;;;1.90;0.70;;;21.30;36.10;;;;;;4962806;28;20438;-66
2021/12/07 07:36:53;;;;;;;2.30;0.70;;;21.30;36.00;;;;;;4961152;28;20443;-66
2021/12/07 07:39:18;;;;;;;2.40;0.80;;;21.30;35.90;;;;;;4964996;28;20404;-65
2021/12/07 07:41:44;;;;;;;2.55;0.60;;;21.30;35.90;;;;;;4972506;28;20760;-65
2021/12/07 07:44:10;;;;;;;2.65;0.60;;;21.30;36.00;;;;;;4967520;28;20467;-66
2021/12/07 07:46:35;;;;;;;2.60;0.80;;;21.30;35.80;;;;;;4966574;28;20392;-66
2021/12/07 07:49:02;;;;;;;4.20;0.70;;;21.30;35.80;;;;;;4965764;28;20419;-65
2021/12/07 07:51:28;;;;;;;3.07;0.90;;;21.30;36.10;;;;;;4965997;28;20438;-66
2021/12/07 07:53:54;;;;;;;4.07;0.77;;;21.30;36.30;;;;;;4965826;28;20448;-66
2021/12/07 07:56:20;;;;;;;2.83;0.75;;;21.30;36.60;;;;;;4965458;28;20431;-66
2021/12/07 07:58:46;;;;;;;3.30;0.70;;;21.30;37.00;;;;;;4965614;28;20404;-66
2021/12/07 08:01:12;;;;;;;2.97;0.70;;;21.30;36.80;;;;;;4971429;28;20716;-66
2021/12/07 08:03:38;;;;;;;2.83;0.77;;;21.30;36.70;;;;;;4970352;28;20816;-66
2021/12/07 08:06:04;;;;;;;3.05;0.93;;;21.30;36.70;;;;;;4972850;28;20943;-67
2021/12/07 08:08:29;;;;;;;2.55;0.73;;;21.30;37.40;;;;;;4967348;28;20415;-66
2021/12/07 08:10:55;;;;;;;5.73;1.00;;;21.30;38.90;;;;;;4966494;28;20428;-66
2021/12/07 08:13:21;;;;;;;5.13;0.90;;;21.40;38.30;;;;;;4970659;28;20402;-66
2021/12/07 08:15:49;;;;;;;3.85;0.80;;;21.40;37.50;;;;;;4968950;28;20399;-66
2021/12/07 08:18:15;;;;;;;4.87;1.00;;;21.30;36.80;;;;;;4965101;28;20495;-67
2021/12/07 08:20:43;;;;;;;3.90;1.10;;;21.30;38.50;;;;;;4969401;28;20511;-66
2021/12/07 08:23:09;;;;;;;4.80;0.90;;;21.30;38.90;;;;;;4964997;28;20427;-69
2021/12/07 08:25:39;;;;;;;4.72;1.00;;;21.20;39.40;;;;;;4970852;28;20389;-66
2021/12/07 08:28:07;;;;;;;4.15;0.70;;;21.20;40.80;;;;;;4966919;28;20455;-66
2021/12/07 08:30:36;;;;;;;2.60;0.73;;;21.30;40.10;;;;;;4963864;28;20392;-73
2021/12/07 08:33:03;;;;;;;3.58;0.90;;;21.20;38.00;;;;;;4966006;28;20407;-66
2021/12/07 08:35:28;;;;;;;4.53;0.90;;;21.20;37.50;;;;;;4974639;28;20398;-67
2021/12/07 08:37:54;;;;;;;5.05;1.02;;;21.20;38.00;;;;;;4971583;28;20430;-66
2021/12/07 08:40:23;;;;;;;2.43;0.83;;;21.10;38.10;;;;;;4971274;28;20748;-66
2021/12/07 08:42:50;;;;;;;2.33;0.80;;;21.10;37.90;;;;;;4966721;28;20404;-66
2021/12/07 08:45:17;;;;;;;3.35;0.90;;;21.10;37.80;;;;;;4964102;28;20404;-66
2021/12/07 08:47:43;;;;;;;3.90;0.85;;;21.10;38.00;;;;;;4971900;28;20546;-66
2021/12/07 08:50:14;;;;;;;2.30;0.80;;;21.10;37.70;;;;;;4969402;28;21555;-66
2021/12/07 08:52:40;;;;;;;2.40;0.93;;;21.20;37.70;;;;;;4967046;28;20396;-66
2021/12/07 09:00:25;;;;;;;3.67;0.90;;;21.10;37.80;;;;;;4970752;28;20387;-66
2021/12/07 09:02:51;;;;;;;1.15;0.60;;;21.10;37.50;;;;;;4967490;28;20392;-69
2021/12/07 09:05:17;;;;;;;1.80;0.80;;;21.10;37.20;;;;;;4969588;28;20442;-67
2021/12/07 09:07:45;;;;;;;3.63;0.88;;;21.20;36.70;;;;;;4968666;28;20415;-66
2021/12/07 09:10:11;;;;;;;4.63;1.00;;;21.30;36.20;;;;;;4967251;28;20420;-66
2021/12/07 09:12:37;;;;;;;3.10;0.80;;;21.40;36.60;;;;;;4965339;28;20928;-65
2021/12/07 09:15:04;;;;;;;2.90;0.65;;;21.40;36.60;;;;;;4967529;28;20396;-66
2021/12/07 09:17:30;;;;;;;2.90;0.77;;;21.30;36.80;;;;;;4964468;28;21033;-66
2021/12/07 09:19:56;;;;;;;2.90;0.75;;;21.30;36.70;;;;;;4965840;28;20415;-65
2021/12/07 09:22:22;;;;;;;2.72;0.73;;;21.40;36.70;;;;;;4964990;28;20432;-65
2021/12/07 09:24:48;;;;;;;3.38;0.80;;;21.40;36.40;;;;;;4965603;28;20928;-65
2021/12/07 09:27:14;;;;;;;3.55;0.70;;;21.40;36.40;;;;;;4964476;28;20404;-66
2021/12/07 09:29:39;;;;;;;3.95;0.77;;;21.40;36.50;;;;;;4965102;28;20442;-67
2021/12/07 09:32:06;;;;;;;3.08;0.90;;;21.40;36.40;;;;;;4965093;28;20427;-65
2021/12/07 09:34:31;;;;;;;2.60;0.60;;;21.40;36.40;;;;;;4963370;28;20396;-65
2021/12/07 09:36:57;;;;;;;2.10;0.60;;;21.30;36.30;;;;;;4963974;28;20416;-66
2021/12/07 09:39:23;;;;;;;3.13;0.68;;;21.40;36.20;;;;;;4964487;28;20418;-65
2021/12/07 09:41:50;;;;;;;1.63;0.70;;;21.40;36.10;;;;;;4965484;28;20439;-64
2021/12/07 09:44:16;;;;;;;2.05;0.70;;;21.40;36.00;;;;;;4965691;28;20400;-64
2021/12/07 09:46:42;;;;;;;1.55;0.60;;;21.40;36.00;;;;;;4965471;28;20400;-63
2021/12/07 09:49:10;;;;;;;2.25;0.85;;;21.40;36.00;;;;;;4966509;28;20604;-64
2021/12/07 09:51:37;;;;;;;2.47;0.80;;;21.30;35.90;;;;;;4965729;28;20386;-69
2021/12/07 09:54:04;;;;;;;1.77;0.63;;;21.40;35.90;;;;;;4964256;28;20423;-64
2021/12/07 09:56:31;;;;;;;2.88;0.90;;;21.40;35.80;;;;;;4967683;28;20624;-65
2021/12/07 09:58:59;;;;;;;2.88;0.80;;;21.30;35.40;;;;;;4967361;28;20481;-68
2021/12/07 10:01:27;;;;;;;3.78;0.73;;;21.30;35.60;;;;;;4963848;28;20428;-68
2021/12/07 10:03:53;;;;;;;4.53;0.90;;;21.30;36.00;;;;;;4964041;28;21052;-68
2021/12/07 10:06:19;;;;;;;3.90;0.90;;;21.30;35.80;;;;;;4966995;28;20416;-68
2021/12/07 10:08:47;;;;;;;2.85;0.80;;;21.30;36.10;;;;;;4973756;28;20404;-72
2021/12/07 10:11:13;;;;;;;4.05;0.80;;;21.30;36.00;;;;;;4976599;28;20398;-65
2021/12/07 10:13:41;;;;;;;4.57;1.05;;;21.30;35.90;;;;;;4974569;28;20384;-73
2021/12/07 10:16:09;;;;;;;6.28;1.27;;;21.30;36.00;;;;;;4972895;28;20478;-74
2021/12/07 10:18:37;;;;;;;3.47;0.80;;;21.40;36.30;;;;;;4971378;28;20423;-68
2021/12/07 10:21:17;;;;;;;2.63;0.80;;;21.40;38.10;;;;;;4968014;28;20435;-72
2021/12/07 10:23:50;;;;;;;4.40;0.70;;;21.40;37.50;;;;;;4969911;28;20418;-67
2021/12/07 10:26:28;;;;;;;1.95;0.60;;;21.40;38.20;;;;;;4969660;28;20421;-68
2021/12/07 10:29:07;;;;;;;2.70;0.65;;;21.40;37.80;;;;;;4974296;28;20419;-68
2021/12/07 10:31:37;;;;;;;3.67;0.85;;;21.30;37.50;;;;;;4976479;28;20493;-69
2021/12/07 10:34:06;;;;;;;2.05;0.60;;;21.30;37.00;;;;;;4972283;28;20395;-70
2021/12/07 10:36:47;;;;;;;3.65;0.88;;;21.30;36.60;;;;;;4966781;28;20400;-67
2021/12/07 10:39:20;;;;;;;3.60;0.70;;;21.30;36.60;;;;;;4969519;28;20502;-70
2021/12/07 10:41:58;;;;;;;2.33;0.68;;;21.20;36.50;;;;;;4970240;28;20404;-67
2021/12/07 10:44:30;;;;;;;1.77;0.70;;;21.20;36.20;;;;;;4972976;28;20402;-71
2021/12/07 10:46:58;;;;;;;3.97;0.80;;;21.20;36.00;;;;;;4965959;28;20479;-66
2021/12/07 10:49:46;;;;;;;2.50;0.70;;;21.20;36.00;;;;;;4967806;28;20411;-73
2021/12/07 10:52:21;;;;;;;2.72;0.90;;;21.20;36.00;;;;;;4967258;28;20404;-63
2021/12/07 10:58:13;;;;;;;3.60;0.73;;;21.10;35.80;;;;;;4958966;28;20461;-65
2021/12/07 11:00:45;;;;;;;3.13;0.77;;;21.10;35.30;;;;;;4965652;28;20412;-67
2021/12/07 11:03:14;;;;;;;4.63;0.90;;;21.10;35.60;;;;;;4970499;28;20405;-67
2021/12/07 11:05:45;;;;;;;3.78;0.70;;;21.10;35.40;;;;;;4965587;28;20392;-67
2021/12/07 11:08:12;;;;;;;6.32;0.98;;;21.10;35.00;;;;;;4973552;28;20400;-67
2021/12/07 11:10:43;;;;;;;3.53;0.60;;;21.10;35.20;;;;;;4974724;28;20397;-67
2021/12/07 11:13:18;;;;;;;2.67;0.80;;;21.10;35.30;;;;;;4966821;28;20583;-67
2021/12/07 11:15:52;;;;;;;9.33;0.90;;;21.20;35.60;;;;;;4969701;28;20874;-66
2021/12/07 11:18:27;;;;;;;3.90;0.88;;;21.20;35.80;;;;;;4973654;28;20489;-67
2021/12/07 11:20:56;;;;;;;5.47;0.90;;;21.30;36.00;;;;;;4973037;28;20408;-67
2021/12/07 11:23:29;;;;;;;1.90;0.73;;;21.20;36.30;;;;;;4976278;28;20404;-68
2021/12/07 11:31:28;;;;;;;4.50;1.00;;;21.30;36.00;;;;;;4966735;28;20406;-69
2021/12/07 11:34:11;;;;;;;5.63;0.93;;;21.20;35.70;;;;;;4975429;28;20401;-67
2021/12/07 11:37:04;;;;;;;4.38;0.95;;;21.30;35.70;;;;;;4978379;28;21232;-67
2021/12/07 11:39:52;;;;;;;3.53;0.90;;;21.20;35.50;;;;;;4967629;28;20411;-67
2021/12/07 11:42:41;;;;;;;4.22;0.75;;;21.20;35.50;;;;;;4971293;28;20489;-72
2021/12/07 11:45:22;;;;;;;4.10;0.87;;;21.20;35.30;;;;;;4970315;28;20511;-68
2021/12/07 11:47:53;;;;;;;4.63;0.90;;;21.20;35.20;;;;;;4972716;28;20393;-68
2021/12/07 11:50:30;;;;;;;4.35;0.90;;;21.20;35.10;;;;;;4972176;28;20398;-68
2021/12/07 11:53:05;;;;;;;2.95;0.82;;;21.20;35.10;;;;;;4973315;28;20410;-68
2021/12/07 11:55:31;;;;;;;3.43;1.00;;;21.20;35.20;;;;;;4974172;28;20401;-68
2021/12/07 11:57:58;;;;;;;2.80;0.90;;;21.20;35.30;;;;;;4967097;28;21077;-69
2021/12/07 12:00:29;;;;;;;3.33;0.80;;;21.20;35.30;;;;;;4977478;28;20407;-68
2021/12/07 12:02:55;;;;;;;2.83;0.90;;;21.10;35.20;;;;;;4972906;28;20401;-68
2021/12/07 12:05:21;;;;;;;4.13;0.90;;;21.10;35.30;;;;;;4967923;28;20535;-69
2021/12/07 12:07:49;;;;;;;2.00;0.70;;;21.10;35.30;;;;;;4974142;28;20994;-68
2021/12/07 12:10:17;;;;;;;1.60;0.70;;;21.10;35.40;;;;;;4968367;28;20431;-69
2021/12/07 12:13:07;;;;;;;2.13;0.67;;;21.10;35.40;;;;;;4968662;28;20498;-68
2021/12/07 12:16:23;;;;;;;6.72;0.80;;;21.10;35.50;;;;;;4969466;28;20486;-68
2021/12/07 12:19:17;;;;;;;3.83;0.77;;;21.10;36.20;;;;;;4917183;29;20436;-68
2021/12/07 12:22:09;;;;;;;4.25;1.23;;;21.20;36.30;;;;;;4905577;29;20413;-69
2021/12/07 12:24:40;;;;;;;3.95;0.93;;;21.20;36.00;;;;;;4981269;28;20926;-68
2021/12/07 12:27:06;;;;;;;5.20;0.80;;;21.20;35.80;;;;;;4973243;28;20404;-68
2021/12/07 12:29:34;;;;;;;1.60;0.70;;;21.20;35.80;;;;;;4972679;28;20408;-68
2021/12/07 12:32:00;;;;;;;4.18;0.80;;;21.20;35.80;;;;;;4973664;28;20407;-68
2021/12/07 12:34:28;;;;;;;3.55;0.80;;;21.20;35.60;;;;;;4968233;28;20400;-68
2021/12/07 12:37:16;;;;;;;1.70;0.65;;;21.20;35.40;;;;;;4974947;28;20511;-68
2021/12/07 12:40:04;;;;;;;2.15;0.80;;;21.20;35.40;;;;;;4969918;28;20412;-69
2021/12/07 12:42:42;;;;;;;2.38;0.80;;;21.20;35.30;;;;;;4969738;28;20400;-68
2021/12/07 12:45:21;;;;;;;2.17;0.80;;;21.30;35.30;;;;;;4969971;28;20422;-67
2021/12/07 12:48:07;;;;;;;3.40;0.90;;;21.30;35.30;;;;;;4967886;28;20944;-67
2021/12/07 12:50:46;;;;;;;1.97;0.63;;;21.30;35.30;;;;;;4972739;28;20981;-67
2021/12/07 12:53:22;;;;;;;2.20;0.70;;;21.30;35.30;;;;;;4972021;28;20472;-68
2021/12/07 12:55:53;;;;;;;2.83;0.70;;;21.30;35.30;;;;;;4961125;28;20418;-68
2021/12/07 12:58:38;;;;;;;3.13;0.73;;;21.30;35.20;;;;;;4976718;28;20827;-67
2021/12/07 13:01:20;;;;;;;2.45;0.60;;;21.30;35.30;;;;;;4970610;28;20400;-68
2021/12/07 13:03:55;;;;;;;6.10;0.90;;;21.30;35.50;;;;;;4970003;28;20407;-68
2021/12/07 13:06:33;;;;;;;5.85;1.13;;;21.30;35.70;;;;;;4966579;28;20757;-68
2021/12/07 13:09:09;;;;;;;4.47;0.85;;;21.30;35.80;;;;;;4971034;28;20404;-68
2021/12/07 13:12:17;;;;;;;2.38;0.90;;;21.30;35.70;;;;;;4972943;28;20426;-68
2021/12/07 13:14:49;;;;;;;4.00;0.80;;;21.30;35.50;;;;;;4912355;29;20486;-67
2021/12/07 13:17:17;;;;;;;4.18;0.80;;;21.30;35.50;;;;;;4963242;28;20493;-67
2021/12/07 13:20:03;;;;;;;2.60;0.90;;;21.30;35.60;;;;;;4963988;28;20430;-69
2021/12/07 13:22:54;;;;;;;5.47;0.80;;;21.20;35.60;;;;;;4973598;28;20410;-68
2021/12/07 13:25:30;;;;;;;3.30;0.70;;;21.30;35.50;;;;;;4964754;28;20412;-68
2021/12/07 13:28:26;;;;;;;4.97;1.10;;;21.30;35.40;;;;;;4975314;28;20616;-69
2021/12/07 13:30:55;;;;;;;2.78;0.90;;;21.30;35.30;;;;;;4973663;28;20396;-67
2021/12/07 13:33:35;;;;;;;2.05;0.70;;;21.30;35.40;;;;;;4970838;28;20938;-67
2021/12/07 13:36:21;;;;;;;3.13;0.70;;;21.30;35.20;;;;;;4971665;28;20400;-67
2021/12/07 13:38:47;;;;;;;1.60;0.73;;;21.30;35.10;;;;;;4968982;28;20447;-68
2021/12/07 13:41:15;;;;;;;2.28;0.75;;;21.30;35.20;;;;;;4970899;28;20402;-68
2021/12/07 13:43:49;;;;;;;2.88;1.08;;;21.30;35.10;;;;;;4968537;28;20483;-68
2021/12/07 13:46:24;;;;;;;3.38;0.90;;;21.30;35.00;;;;;;4976959;28;21427;-68
2021/12/07 13:49:01;;;;;;;1.85;0.70;;;21.30;35.00;;;;;;4973074;28;20539;-68
2021/12/07 13:51:28;;;;;;;1.20;0.60;;;21.30;35.30;;;;;;4974125;28;20559;-68
2021/12/07 13:53:54;;;;;;;2.80;0.80;;;21.30;35.10;;;;;;4973804;28;20432;-68
2021/12/07 13:56:21;;;;;;;2.55;0.80;;;21.30;35.00;;;;;;4972830;28;20404;-68
2021/12/07 13:59:05;;;;;;;1.90;0.70;;;21.30;35.00;;;;;;4975724;28;20737;-68
2021/12/07 14:01:34;;;;;;;2.40;0.80;;;21.30;34.90;;;;;;4967305;28;20396;-68
2021/12/07 14:04:00;;;;;;;2.95;0.70;;;21.30;34.90;;;;;;4968556;28;20402;-68
2021/12/07 14:06:27;;;;;;;2.95;0.93;;;21.40;34.80;;;;;;4970834;28;20427;-67
2021/12/07 14:08:53;;;;;;;2.53;0.65;;;21.40;34.70;;;;;;4972463;28;20459;-68
2021/12/07 14:11:19;;;;;;;2.10;0.75;;;21.40;34.60;;;;;;4971025;28;20410;-69
2021/12/07 14:13:48;;;;;;;2.38;0.70;;;21.30;34.90;;;;;;4972212;28;21169;-68
2021/12/07 14:16:17;;;;;;;3.80;0.85;;;21.30;34.90;;;;;;4966197;28;20427;-67
2021/12/07 14:18:46;;;;;;;2.78;1.23;;;21.40;34.80;;;;;;4966764;28;20422;-68
2021/12/07 14:21:13;;;;;;;3.10;1.10;;;21.40;34.80;;;;;;4967776;28;20408;-67
2021/12/07 14:23:47;;;;;;;5.93;1.50;;;21.40;34.80;;;;;;4968898;28;20485;-67
2021/12/07 14:26:19;;;;;;;3.60;1.35;;;21.40;35.10;;;;;;4967384;28;20396;-68
2021/12/07 14:28:48;;;;;;;4.75;1.27;;;21.40;35.00;;;;;;4966689;28;20665;-68
2021/12/07 14:31:19;;;;;;;3.55;1.10;;;21.30;34.80;;;;;;4947508;28;20407;-68
2021/12/07 14:33:47;;;;;;;5.25;1.45;;;21.30;34.80;;;;;;4969161;28;20963;-68
2021/12/07 14:36:16;;;;;;;4.78;1.52;;;21.30;34.90;;;;;;4970726;28;20489;-68
2021/12/07 14:38:42;;;;;;;3.97;1.20;;;21.30;35.90;;;;;;4965024;28;20451;-68